Gray Army Air Field
KGRF : now visible

Airfield :











YOU CAN JOIN US ON...

 
LOGIN :

Register | Disclaimer

   EN    FR    IT 

 









Legend :    VFR   Marginal VFR   IFR   Intensive IFR   Very Intensive IFR
Visi :
Ceiling :
>= 8 km
>= 3000ft
5 to 8 km
1000 to 3000 ft
1500m to 5 km
500 to 1000 ft
800 to 1500m
200 to 500 ft
< 800m
< 200 ft
Symbols :   Thunderstorms  Fog  Heavy snow  Heavy precipitations  Wind > 20 kt







- Airport Elevation : 300 ft


KGRF - Gray Army Air Field

CURRENT METAR :
  • 200858Z AUTO 16004KT 10SM OVC018 15/15 A3007 RMK AO2 SLP186 T01460146 50004 $

EXPIRED METARs :
  • 200758Z AUTO 16006KT 10SM OVC018 15/15 A3006 RMK AO2 SLP182 T01470147 402110068 $
  • 200658Z AUTO 16005KT 10SM OVC021 15/15 A3006 RMK AO2 SLP183 T01480148 $
  • 200618Z AUTO 16005KT 10SM BKN023 BKN070 OVC090 15/15 A3005 RMK AO2 CIG 023V070 BKN023 V FEW SLP179 $

TAF TAF KGRF
Valid from the 20 at 05:00 until the 21 at 11:00 UTC


200502Z 2005/2111 VRB06KT 9999 OVC070 QNH3003INS
BECMG 2007/2008 VRB06KT 9999 OVC030 QNH3003INS
BECMG 2011/2012 VRB06KT 8000 BR OVC015 QNH3005INS
BECMG 2013/2014 VRB06KT 9999 NSW BKN020 QNH3009INS
BECMG 2018/2019 VRB06KT 9999 SCT015 BKN030 BKN100 QNH3008INS TX20/2023Z TN10/2011Z
No reported NOTAMs for that airfield.



MET'MAP, your aeronautical weather chart ! - Copyright ORBIFLY December 2007 - Disclaimer

ORBIFLY MET'MAP TEAM :

Programming & Development : Alexandra Zaïnal
Concept & Development : Baudouin d'Aumeries
Co-Development & Prog : Marc-Olivier Méhu
Technical & hardware support : Manuel Goepfert

Contact : metmap@orbifly.com




SOURCES & CREDITS :

   NOAA       Earth
Advisory